EIN49W EIDW-LPFR
Flight info
| Callsign | EIN49W |
|---|---|
| Flight time | N/A |
| Altitude | 40000 |
| Route | PELIG2J PELIG DCT ABAGU DCT TUVEN/M079F400 DCT LASNO T9 BEGAS/N0456F390 DCT PINEK DCT ALAGU ALAGU5K |
| Aircraft | A333/H-SDE3GHIJ2J3J5M1RVWXY/LB2D1 |
Departure
| Time | 2026-05-05 14:14 |
|---|---|
| Airport | Dublin Airport (EIDW) |
Arrival
| Time | N/A |
|---|---|
| Airport | Faro - Gago Coutinho International Airport (LPFR) |
| Time | Latitude | Longitude | Altitude | Speed | Heading |
|---|---|---|---|---|---|
| 2026-05-05 13:49 | 53.42545 | -6.24624 | 218 ft | 0 kts | 20° |
| 2026-05-05 14:00 | 53.42544 | -6.24624 | 215 ft | 1 kts | 20° |
| 2026-05-05 14:00 | 53.42525 | -6.24637 | 220 ft | 3 kts | 20° |
| 2026-05-05 14:00 | 53.42503 | -6.24650 | 225 ft | 3 kts | 20° |
| 2026-05-05 14:00 | 53.42482 | -6.24663 | 218 ft | 3 kts | 20° |
| 2026-05-05 14:01 | 53.42464 | -6.24675 | 224 ft | 3 kts | 14° |
| 2026-05-05 14:01 | 53.42443 | -6.24679 | 220 ft | 3 kts | 347° |
| 2026-05-05 14:01 | 53.42425 | -6.24665 | 218 ft | 3 kts | 302° |
| 2026-05-05 14:01 | 53.42421 | -6.24637 | 224 ft | 3 kts | 243° |
| 2026-05-05 14:02 | 53.42431 | -6.24604 | 219 ft | 3 kts | 243° |
| 2026-05-05 14:02 | 53.42435 | -6.24591 | 218 ft | 0 kts | 243° |
| 2026-05-05 14:05 | 53.42432 | -6.24602 | 219 ft | 3 kts | 243° |
| 2026-05-05 14:05 | 53.42419 | -6.24648 | 224 ft | 6 kts | 251° |
| 2026-05-05 14:05 | 53.42426 | -6.24726 | 220 ft | 8 kts | 301° |
| 2026-05-05 14:05 | 53.42478 | -6.24782 | 222 ft | 10 kts | 338° |
| 2026-05-05 14:06 | 53.42550 | -6.24831 | 225 ft | 12 kts | 337° |
| 2026-05-05 14:06 | 53.42633 | -6.24895 | 225 ft | 14 kts | 332° |
| 2026-05-05 14:06 | 53.42717 | -6.24980 | 222 ft | 14 kts | 328° |
| 2026-05-05 14:06 | 53.42785 | -6.25085 | 222 ft | 14 kts | 292° |
| 2026-05-05 14:07 | 53.42811 | -6.25237 | 224 ft | 12 kts | 303° |
| 2026-05-05 14:07 | 53.42882 | -6.25307 | 223 ft | 12 kts | 337° |
| 2026-05-05 14:07 | 53.42952 | -6.25357 | 225 ft | 11 kts | 336° |
| 2026-05-05 14:07 | 53.43026 | -6.25410 | 220 ft | 12 kts | 336° |
| 2026-05-05 14:08 | 53.43108 | -6.25471 | 225 ft | 14 kts | 336° |
| 2026-05-05 14:08 | 53.43200 | -6.25537 | 221 ft | 15 kts | 336° |
| 2026-05-05 14:08 | 53.43294 | -6.25605 | 221 ft | 15 kts | 336° |
| 2026-05-05 14:08 | 53.43387 | -6.25626 | 223 ft | 12 kts | 35° |
| 2026-05-05 14:09 | 53.43404 | -6.25506 | 216 ft | 12 kts | 93° |
| 2026-05-05 14:09 | 53.43396 | -6.25361 | 216 ft | 14 kts | 95° |
| 2026-05-05 14:09 | 53.43387 | -6.25192 | 222 ft | 15 kts | 95° |
| 2026-05-05 14:09 | 53.43377 | -6.25012 | 217 ft | 16 kts | 95° |
| 2026-05-05 14:10 | 53.43366 | -6.24814 | 220 ft | 18 kts | 95° |
| 2026-05-05 14:10 | 53.43354 | -6.24600 | 215 ft | 19 kts | 95° |
| 2026-05-05 14:10 | 53.43342 | -6.24379 | 222 ft | 18 kts | 96° |
| 2026-05-05 14:10 | 53.43330 | -6.24171 | 215 ft | 18 kts | 95° |
| 2026-05-05 14:11 | 53.43321 | -6.23988 | 217 ft | 12 kts | 95° |
| 2026-05-05 14:11 | 53.43334 | -6.23888 | 223 ft | 7 kts | 51° |
| 2026-05-05 14:11 | 53.43376 | -6.23858 | 222 ft | 4 kts | 11° |
| 2026-05-05 14:11 | 53.43393 | -6.23854 | 220 ft | 0 kts | 7° |
| 2026-05-05 14:12 | 53.43411 | -6.23851 | 218 ft | 6 kts | 6° |
| 2026-05-05 14:13 | 53.43466 | -6.23871 | 216 ft | 10 kts | 323° |
| 2026-05-05 14:13 | 53.43491 | -6.23982 | 222 ft | 11 kts | 277° |
| 2026-05-05 14:13 | 53.43498 | -6.24103 | 222 ft | 12 kts | 275° |
| 2026-05-05 14:13 | 53.43519 | -6.24479 | 224 ft | 63 kts | 275° |
| 2026-05-05 14:14 | 53.43578 | -6.25562 | 220 ft | 121 kts | 275° |
| 2026-05-05 14:14 | 53.43667 | -6.27240 | 271 ft | 163 kts | 277° |
| 2026-05-05 14:14 | 53.43782 | -6.29204 | 678 ft | 176 kts | 277° |
| 2026-05-05 14:14 | 53.44086 | -6.31223 | 1312 ft | 175 kts | 308° |
| 2026-05-05 14:15 | 53.44871 | -6.32630 | 2153 ft | 164 kts | 317° |
| 2026-05-05 14:15 | 53.45730 | -6.34036 | 2536 ft | 184 kts | 319° |
| 2026-05-05 14:15 | 53.46673 | -6.35685 | 2893 ft | 205 kts | 312° |
| 2026-05-05 14:15 | 53.47580 | -6.37636 | 3490 ft | 221 kts | 308° |
| 2026-05-05 14:16 | 53.48532 | -6.39830 | 3963 ft | 241 kts | 307° |
| 2026-05-05 14:16 | 53.49513 | -6.42139 | 4733 ft | 250 kts | 307° |
| 2026-05-05 14:16 | 53.50491 | -6.44584 | 5646 ft | 253 kts | 300° |
| 2026-05-05 14:16 | 53.51067 | -6.47398 | 6659 ft | 256 kts | 278° |
| 2026-05-05 14:17 | 53.50898 | -6.50365 | 7544 ft | 265 kts | 253° |
| 2026-05-05 14:17 | 53.50111 | -6.53214 | 8397 ft | 273 kts | 244° |
| 2026-05-05 14:17 | 53.49157 | -6.56018 | 9276 ft | 279 kts | 242° |
| 2026-05-05 14:17 | 53.48172 | -6.58865 | 10143 ft | 284 kts | 242° |
| 2026-05-05 14:18 | 53.47156 | -6.61828 | 10595 ft | 304 kts | 242° |
| 2026-05-05 14:18 | 53.46021 | -6.64968 | 10990 ft | 324 kts | 240° |
| 2026-05-05 14:18 | 53.44795 | -6.68227 | 11647 ft | 332 kts | 239° |
| 2026-05-05 14:18 | 53.43560 | -6.71488 | 12442 ft | 336 kts | 239° |
| 2026-05-05 14:19 | 53.42294 | -6.74833 | 13270 ft | 340 kts | 239° |
| 2026-05-05 14:19 | 53.41017 | -6.78204 | 14065 ft | 343 kts | 239° |
| 2026-05-05 14:19 | 53.39747 | -6.81561 | 14768 ft | 347 kts | 239° |
| 2026-05-05 14:19 | 53.38447 | -6.84993 | 15469 ft | 350 kts | 239° |
| 2026-05-05 14:20 | 53.37147 | -6.88422 | 16178 ft | 352 kts | 239° |
| 2026-05-05 14:20 | 53.35815 | -6.91929 | 16915 ft | 355 kts | 239° |
| 2026-05-05 14:20 | 53.34497 | -6.95395 | 17596 ft | 358 kts | 239° |
| 2026-05-05 14:20 | 53.33150 | -6.98935 | 18270 ft | 362 kts | 239° |
| 2026-05-05 14:21 | 53.31789 | -7.02506 | 18841 ft | 365 kts | 239° |
| 2026-05-05 14:21 | 53.30414 | -7.06108 | 19437 ft | 367 kts | 239° |
| 2026-05-05 14:21 | 53.29050 | -7.09675 | 20022 ft | 369 kts | 239° |
| 2026-05-05 14:21 | 53.27662 | -7.13301 | 20627 ft | 371 kts | 239° |
| 2026-05-05 14:22 | 53.26261 | -7.16955 | 21213 ft | 373 kts | 239° |
| 2026-05-05 14:22 | 53.24855 | -7.20619 | 21777 ft | 376 kts | 239° |
| 2026-05-05 14:22 | 53.23433 | -7.24315 | 22291 ft | 379 kts | 239° |
| 2026-05-05 14:22 | 53.21910 | -7.27874 | 22830 ft | 384 kts | 233° |
| 2026-05-05 14:23 | 53.20031 | -7.31073 | 23382 ft | 389 kts | 223° |
| 2026-05-05 14:23 | 53.17788 | -7.33667 | 23848 ft | 395 kts | 212° |
| 2026-05-05 14:23 | 53.15248 | -7.35529 | 24281 ft | 401 kts | 202° |
| 2026-05-05 14:23 | 53.12578 | -7.36968 | 24706 ft | 405 kts | 199° |
| 2026-05-05 14:24 | 53.09877 | -7.38221 | 25120 ft | 408 kts | 198° |
| 2026-05-05 14:24 | 53.07121 | -7.39412 | 25540 ft | 411 kts | 197° |
| 2026-05-05 14:24 | 53.04337 | -7.40594 | 25963 ft | 413 kts | 197° |
| 2026-05-05 14:24 | 53.01549 | -7.41791 | 26363 ft | 415 kts | 197° |
| 2026-05-05 14:25 | 52.98771 | -7.43006 | 26750 ft | 417 kts | 197° |
| 2026-05-05 14:25 | 52.95949 | -7.44259 | 27148 ft | 420 kts | 197° |
| 2026-05-05 14:25 | 52.93114 | -7.45532 | 27537 ft | 422 kts | 197° |
| 2026-05-05 14:25 | 52.90303 | -7.46799 | 27927 ft | 424 kts | 197° |
| 2026-05-05 14:26 | 52.87435 | -7.48095 | 28314 ft | 427 kts | 197° |
| 2026-05-05 14:26 | 52.84558 | -7.49393 | 28684 ft | 429 kts | 197° |
| 2026-05-05 14:26 | 52.81667 | -7.50696 | 29052 ft | 431 kts | 197° |
| 2026-05-05 14:26 | 52.78765 | -7.52001 | 29423 ft | 434 kts | 197° |
| 2026-05-05 14:27 | 52.75840 | -7.53313 | 29790 ft | 436 kts | 197° |
| 2026-05-05 14:27 | 52.72902 | -7.54629 | 30144 ft | 438 kts | 197° |
| 2026-05-05 14:27 | 52.69985 | -7.55933 | 30384 ft | 441 kts | 197° |
| 2026-05-05 14:27 | 52.67008 | -7.57262 | 30635 ft | 445 kts | 197° |
| 2026-05-05 14:28 | 52.64009 | -7.58600 | 30935 ft | 447 kts | 197° |
| 2026-05-05 14:28 | 52.60996 | -7.59941 | 31243 ft | 448 kts | 197° |
| 2026-05-05 14:28 | 52.57975 | -7.61283 | 31541 ft | 450 kts | 197° |
| 2026-05-05 14:28 | 52.54937 | -7.62631 | 31831 ft | 452 kts | 197° |
| 2026-05-05 14:29 | 52.51929 | -7.63964 | 32107 ft | 454 kts | 197° |
| 2026-05-05 14:29 | 52.48863 | -7.65300 | 32354 ft | 457 kts | 196° |
| 2026-05-05 14:29 | 52.45779 | -7.66599 | 32674 ft | 457 kts | 196° |
| 2026-05-05 14:29 | 52.42690 | -7.67876 | 33072 ft | 456 kts | 196° |
| 2026-05-05 14:30 | 52.39651 | -7.69121 | 33469 ft | 455 kts | 196° |
| 2026-05-05 14:30 | 52.36578 | -7.70379 | 33838 ft | 454 kts | 196° |
| 2026-05-05 14:30 | 52.33512 | -7.71635 | 34183 ft | 454 kts | 196° |
| 2026-05-05 14:30 | 52.30442 | -7.72894 | 34476 ft | 453 kts | 196° |
| 2026-05-05 14:31 | 52.27418 | -7.74135 | 34764 ft | 453 kts | 196° |
| 2026-05-05 14:31 | 52.24363 | -7.75388 | 35033 ft | 453 kts | 196° |
| 2026-05-05 14:31 | 52.21302 | -7.76644 | 35302 ft | 453 kts | 195° |
| 2026-05-05 14:31 | 52.18240 | -7.77899 | 35571 ft | 453 kts | 195° |
| 2026-05-05 14:32 | 52.15185 | -7.79149 | 35832 ft | 453 kts | 196° |
| 2026-05-05 14:32 | 52.12167 | -7.80382 | 36078 ft | 453 kts | 195° |
| 2026-05-05 14:32 | 52.09107 | -7.81630 | 36337 ft | 453 kts | 195° |
| 2026-05-05 14:32 | 52.06045 | -7.82877 | 36579 ft | 453 kts | 195° |
| 2026-05-05 14:33 | 52.02986 | -7.84121 | 36820 ft | 453 kts | 195° |
| 2026-05-05 14:33 | 51.99919 | -7.85366 | 37054 ft | 454 kts | 195° |
| 2026-05-05 14:33 | 51.96881 | -7.86598 | 37239 ft | 455 kts | 195° |
| 2026-05-05 14:33 | 51.93805 | -7.87844 | 37471 ft | 455 kts | 195° |
| 2026-05-05 14:34 | 51.90723 | -7.89090 | 37728 ft | 455 kts | 195° |
| 2026-05-05 14:34 | 51.87641 | -7.90334 | 37964 ft | 455 kts | 195° |
| 2026-05-05 14:34 | 51.84569 | -7.91572 | 38209 ft | 455 kts | 195° |
| 2026-05-05 14:34 | 51.81498 | -7.92809 | 38432 ft | 455 kts | 195° |
| 2026-05-05 14:35 | 51.78466 | -7.94028 | 38648 ft | 455 kts | 195° |
| 2026-05-05 14:35 | 51.75392 | -7.95262 | 38814 ft | 455 kts | 195° |
| 2026-05-05 14:35 | 51.72311 | -7.96498 | 38931 ft | 456 kts | 195° |
| 2026-05-05 14:35 | 51.69218 | -7.97736 | 39077 ft | 457 kts | 195° |
| 2026-05-05 14:36 | 51.66136 | -7.98969 | 39254 ft | 457 kts | 195° |
| 2026-05-05 14:36 | 51.63043 | -8.00203 | 39412 ft | 456 kts | 195° |
| 2026-05-05 14:36 | 51.59959 | -8.01433 | 39570 ft | 457 kts | 195° |
| 2026-05-05 14:36 | 51.56913 | -8.02646 | 39717 ft | 457 kts | 195° |
| 2026-05-05 14:37 | 51.53812 | -8.03879 | 39863 ft | 457 kts | 195° |
| 2026-05-05 14:37 | 51.50715 | -8.05108 | 39982 ft | 458 kts | 195° |
| 2026-05-05 14:37 | 51.44506 | -8.07569 | 40082 ft | 463 kts | 195° |
| 2026-05-05 14:38 | 51.38263 | -8.10036 | 40088 ft | 465 kts | 195° |
| 2026-05-05 14:38 | 51.31971 | -8.12514 | 40089 ft | 464 kts | 195° |
| 2026-05-05 14:39 | 51.25727 | -8.14967 | 40087 ft | 464 kts | 195° |
| 2026-05-05 14:39 | 51.19475 | -8.17416 | 40088 ft | 465 kts | 195° |
| 2026-05-05 14:40 | 51.14242 | -8.19461 | 40091 ft | 465 kts | 195° |
| 2026-05-05 14:40 | 51.07984 | -8.21900 | 40091 ft | 465 kts | 195° |
| 2026-05-05 14:41 | 51.01688 | -8.24347 | 40090 ft | 465 kts | 195° |
| 2026-05-05 14:41 | 50.95358 | -8.26615 | 40089 ft | 466 kts | 193° |
| 2026-05-05 14:42 | 50.89018 | -8.28664 | 40089 ft | 466 kts | 192° |
| 2026-05-05 14:42 | 50.82641 | -8.30701 | 40091 ft | 466 kts | 192° |
| 2026-05-05 14:43 | 50.76305 | -8.32747 | 40091 ft | 466 kts | 192° |
| 2026-05-05 14:43 | 50.69958 | -8.34806 | 40091 ft | 466 kts | 193° |
| 2026-05-05 14:44 | 50.63595 | -8.36868 | 40091 ft | 466 kts | 192° |
| 2026-05-05 14:44 | 50.57262 | -8.38915 | 40086 ft | 466 kts | 192° |
| 2026-05-05 14:45 | 50.50893 | -8.40967 | 40097 ft | 467 kts | 192° |
| 2026-05-05 14:45 | 50.44545 | -8.43006 | 40097 ft | 467 kts | 192° |
| 2026-05-05 14:46 | 50.38197 | -8.45039 | 40091 ft | 467 kts | 192° |
| 2026-05-05 14:46 | 50.31839 | -8.47070 | 40091 ft | 467 kts | 192° |
| 2026-05-05 14:47 | 50.25456 | -8.49104 | 40097 ft | 468 kts | 192° |
| 2026-05-05 14:47 | 50.19085 | -8.51128 | 40094 ft | 468 kts | 192° |
| 2026-05-05 14:48 | 50.12724 | -8.53143 | 40094 ft | 468 kts | 192° |
| 2026-05-05 14:48 | 50.06331 | -8.55163 | 40091 ft | 468 kts | 192° |
| 2026-05-05 14:49 | 49.99962 | -8.57170 | 40091 ft | 468 kts | 192° |
| 2026-05-05 14:49 | 49.93582 | -8.59175 | 40094 ft | 468 kts | 192° |
| 2026-05-05 14:50 | 49.87176 | -8.61183 | 40091 ft | 468 kts | 192° |
| 2026-05-05 14:50 | 49.80795 | -8.63177 | 40084 ft | 469 kts | 192° |
| 2026-05-05 14:51 | 49.74369 | -8.65180 | 40092 ft | 470 kts | 192° |
| 2026-05-05 14:51 | 49.67988 | -8.67164 | 40091 ft | 470 kts | 192° |
| 2026-05-05 14:52 | 49.61591 | -8.69148 | 40091 ft | 470 kts | 192° |
| 2026-05-05 14:52 | 49.55167 | -8.71134 | 40089 ft | 470 kts | 192° |
| 2026-05-05 14:53 | 49.48763 | -8.73109 | 40088 ft | 471 kts | 192° |
| 2026-05-05 14:53 | 49.42353 | -8.75081 | 40088 ft | 470 kts | 192° |
| 2026-05-05 14:54 | 49.35940 | -8.77048 | 40092 ft | 471 kts | 192° |
| 2026-05-05 14:54 | 49.29493 | -8.79020 | 40092 ft | 472 kts | 192° |
| 2026-05-05 14:55 | 49.23083 | -8.80976 | 40088 ft | 472 kts | 192° |
| 2026-05-05 14:55 | 49.16632 | -8.82940 | 40086 ft | 472 kts | 192° |
| 2026-05-05 14:56 | 49.10205 | -8.84891 | 40086 ft | 472 kts | 192° |
| 2026-05-05 14:56 | 49.03733 | -8.86851 | 40087 ft | 472 kts | 192° |
| 2026-05-05 14:57 | 48.97299 | -8.88794 | 40089 ft | 473 kts | 192° |
| 2026-05-05 14:57 | 48.90868 | -8.90732 | 40089 ft | 473 kts | 192° |
| 2026-05-05 14:58 | 48.84421 | -8.92669 | 40088 ft | 473 kts | 192° |
| 2026-05-05 14:58 | 48.77940 | -8.94611 | 40088 ft | 473 kts | 192° |
| 2026-05-05 14:59 | 48.71507 | -8.96534 | 40087 ft | 473 kts | 192° |
| 2026-05-05 14:59 | 48.65057 | -8.98456 | 40089 ft | 474 kts | 192° |
| 2026-05-05 15:00 | 48.59632 | -8.99779 | 40090 ft | 475 kts | 184° |
| 2026-05-05 15:00 | 48.51920 | -9.00094 | 40089 ft | 475 kts | 181° |
| 2026-05-05 15:01 | 48.45295 | -9.00077 | 40083 ft | 475 kts | 180° |
| 2026-05-05 15:01 | 48.38715 | -9.00033 | 40089 ft | 475 kts | 180° |
| 2026-05-05 15:02 | 48.32097 | -9.00014 | 40086 ft | 475 kts | 180° |
| 2026-05-05 15:02 | 48.25472 | -9.00011 | 40083 ft | 476 kts | 180° |
| 2026-05-05 15:03 | 48.18873 | -9.00013 | 40083 ft | 476 kts | 180° |
| 2026-05-05 15:03 | 48.12257 | -9.00015 | 40083 ft | 476 kts | 180° |
| 2026-05-05 15:04 | 48.05612 | -9.00015 | 40083 ft | 477 kts | 180° |
| 2026-05-05 15:04 | 47.98956 | -9.00015 | 40083 ft | 477 kts | 180° |
| 2026-05-05 15:05 | 47.89015 | -9.00015 | 40086 ft | 477 kts | 180° |
| 2026-05-05 15:06 | 47.82367 | -9.00015 | 40083 ft | 478 kts | 180° |
| 2026-05-05 15:06 | 47.75703 | -9.00015 | 40081 ft | 478 kts | 180° |
| 2026-05-05 15:07 | 47.69071 | -9.00015 | 40081 ft | 478 kts | 180° |
| 2026-05-05 15:07 | 47.62435 | -9.00015 | 40080 ft | 479 kts | 180° |
| 2026-05-05 15:08 | 47.55785 | -9.00015 | 40077 ft | 479 kts | 180° |
| 2026-05-05 15:08 | 47.49100 | -9.00015 | 40075 ft | 479 kts | 180° |
| 2026-05-05 15:09 | 47.42450 | -9.00014 | 40074 ft | 479 kts | 180° |
| 2026-05-05 15:09 | 47.35780 | -9.00015 | 40081 ft | 479 kts | 180° |
| 2026-05-05 15:10 | 47.29091 | -9.00015 | 40081 ft | 479 kts | 180° |
| 2026-05-05 15:10 | 47.22443 | -9.00014 | 40077 ft | 479 kts | 180° |
| 2026-05-05 15:11 | 47.15756 | -9.00014 | 40075 ft | 480 kts | 180° |
| 2026-05-05 15:11 | 47.09129 | -9.00014 | 40075 ft | 479 kts | 180° |
| 2026-05-05 15:12 | 47.02454 | -9.00014 | 40069 ft | 480 kts | 180° |
| 2026-05-05 15:12 | 46.95769 | -9.00014 | 40072 ft | 479 kts | 181° |
| 2026-05-05 15:13 | 46.89087 | -9.00014 | 40073 ft | 479 kts | 180° |
| 2026-05-05 15:13 | 46.82435 | -9.00014 | 40072 ft | 479 kts | 181° |
| 2026-05-05 15:14 | 46.75760 | -9.00014 | 40074 ft | 480 kts | 181° |
| 2026-05-05 15:14 | 46.69108 | -9.00015 | 40073 ft | 480 kts | 181° |
| 2026-05-05 15:15 | 46.62416 | -9.00015 | 40072 ft | 480 kts | 181° |
| 2026-05-05 15:15 | 46.55763 | -9.00015 | 40074 ft | 480 kts | 181° |
| 2026-05-05 15:16 | 46.49065 | -9.00015 | 40071 ft | 480 kts | 181° |
| 2026-05-05 15:16 | 46.42417 | -9.00015 | 40071 ft | 480 kts | 181° |
| 2026-05-05 15:17 | 46.35739 | -9.00015 | 40070 ft | 480 kts | 181° |
| 2026-05-05 15:17 | 46.29050 | -9.00015 | 40070 ft | 480 kts | 181° |
| 2026-05-05 15:18 | 46.22412 | -9.00015 | 40076 ft | 480 kts | 181° |
| 2026-05-05 15:18 | 46.15731 | -9.00015 | 40072 ft | 480 kts | 181° |
| 2026-05-05 15:19 | 46.09079 | -9.00015 | 40068 ft | 480 kts | 181° |
| 2026-05-05 15:19 | 46.02375 | -9.00015 | 40070 ft | 480 kts | 181° |
| 2026-05-05 15:20 | 45.95710 | -9.00015 | 40067 ft | 480 kts | 181° |
| 2026-05-05 15:20 | 45.89068 | -9.00015 | 40066 ft | 480 kts | 181° |
| 2026-05-05 15:21 | 45.82367 | -9.00014 | 40070 ft | 480 kts | 181° |
| 2026-05-05 15:21 | 45.75718 | -9.00014 | 40070 ft | 480 kts | 181° |
| 2026-05-05 15:22 | 45.69055 | -9.00014 | 40070 ft | 480 kts | 181° |
| 2026-05-05 15:22 | 45.62402 | -9.00014 | 40067 ft | 480 kts | 181° |
| 2026-05-05 15:23 | 45.55728 | -9.00014 | 40060 ft | 480 kts | 181° |
| 2026-05-05 15:23 | 45.49043 | -9.00014 | 40064 ft | 480 kts | 181° |
| 2026-05-05 15:24 | 45.42391 | -9.00014 | 40064 ft | 480 kts | 181° |
| 2026-05-05 15:24 | 45.35735 | -9.00014 | 40061 ft | 480 kts | 181° |
| 2026-05-05 15:25 | 45.29038 | -9.00014 | 40065 ft | 480 kts | 181° |
| 2026-05-05 15:25 | 45.22389 | -9.00014 | 40066 ft | 480 kts | 181° |
| 2026-05-05 15:26 | 45.15692 | -9.00014 | 40064 ft | 480 kts | 181° |
| 2026-05-05 15:26 | 45.09030 | -9.00014 | 40064 ft | 480 kts | 181° |
| 2026-05-05 15:27 | 45.02341 | -9.00014 | 40057 ft | 480 kts | 181° |
| 2026-05-05 15:27 | 44.95715 | -8.99554 | 39861 ft | 476 kts | 176° |
| 2026-05-05 15:27 | 44.92435 | -8.99152 | 39634 ft | 470 kts | 176° |
| 2026-05-05 15:28 | 44.89180 | -8.98719 | 39242 ft | 470 kts | 175° |
| 2026-05-05 15:28 | 44.85911 | -8.98269 | 39091 ft | 473 kts | 175° |
| 2026-05-05 15:28 | 44.82657 | -8.97819 | 39060 ft | 476 kts | 175° |
| 2026-05-05 15:29 | 44.76036 | -8.96912 | 39062 ft | 477 kts | 175° |
| 2026-05-05 15:29 | 44.69459 | -8.96026 | 39064 ft | 477 kts | 175° |
| 2026-05-05 15:30 | 44.62841 | -8.95142 | 39059 ft | 477 kts | 176° |
| 2026-05-05 15:30 | 44.56257 | -8.94266 | 39062 ft | 477 kts | 176° |
| 2026-05-05 15:31 | 44.49636 | -8.93388 | 39065 ft | 476 kts | 176° |
| 2026-05-05 15:31 | 44.43037 | -8.92513 | 39061 ft | 476 kts | 176° |
| 2026-05-05 15:32 | 44.36446 | -8.91641 | 39059 ft | 476 kts | 176° |
| 2026-05-05 15:32 | 44.29871 | -8.90774 | 39060 ft | 476 kts | 176° |
| 2026-05-05 15:33 | 44.23262 | -8.89904 | 39060 ft | 476 kts | 176° |
| 2026-05-05 15:33 | 44.16692 | -8.89041 | 39061 ft | 476 kts | 176° |
| 2026-05-05 15:34 | 44.10084 | -8.88175 | 39063 ft | 476 kts | 176° |
| 2026-05-05 15:34 | 44.03489 | -8.87313 | 39058 ft | 476 kts | 176° |
| 2026-05-05 15:35 | 43.96914 | -8.86455 | 39063 ft | 476 kts | 176° |
| 2026-05-05 15:35 | 43.90305 | -8.85594 | 39063 ft | 476 kts | 176° |
| 2026-05-05 15:36 | 43.83717 | -8.84739 | 39062 ft | 476 kts | 176° |
| 2026-05-05 15:36 | 43.77107 | -8.83882 | 39064 ft | 476 kts | 176° |
| 2026-05-05 15:37 | 43.70543 | -8.83033 | 39067 ft | 476 kts | 176° |
| 2026-05-05 15:37 | 43.63936 | -8.82180 | 39066 ft | 476 kts | 177° |
| 2026-05-05 15:38 | 43.57335 | -8.81331 | 39068 ft | 476 kts | 177° |
| 2026-05-05 15:38 | 43.50739 | -8.80483 | 39070 ft | 476 kts | 177° |
| 2026-05-05 15:39 | 43.44136 | -8.79637 | 39067 ft | 476 kts | 177° |
| 2026-05-05 15:39 | 43.37580 | -8.78798 | 39070 ft | 475 kts | 177° |
| 2026-05-05 15:40 | 43.30975 | -8.77954 | 39075 ft | 475 kts | 177° |
| 2026-05-05 15:40 | 43.24415 | -8.77119 | 39068 ft | 475 kts | 177° |
| 2026-05-05 15:41 | 43.17805 | -8.76279 | 39072 ft | 475 kts | 177° |
| 2026-05-05 15:41 | 43.11258 | -8.75449 | 39067 ft | 475 kts | 177° |
| 2026-05-05 15:42 | 43.04662 | -8.74614 | 39072 ft | 475 kts | 177° |
| 2026-05-05 15:42 | 42.98072 | -8.73782 | 39065 ft | 474 kts | 177° |
| 2026-05-05 15:43 | 42.91519 | -8.72956 | 39062 ft | 474 kts | 177° |
| 2026-05-05 15:43 | 42.84979 | -8.72135 | 39063 ft | 474 kts | 178° |
| 2026-05-05 15:44 | 42.78410 | -8.71310 | 39070 ft | 473 kts | 178° |
| 2026-05-05 15:44 | 42.71845 | -8.70488 | 39063 ft | 474 kts | 178° |
| 2026-05-05 15:45 | 42.66373 | -8.69805 | 39060 ft | 474 kts | 178° |
| 2026-05-05 15:45 | 42.59809 | -8.68986 | 39065 ft | 473 kts | 178° |
| 2026-05-05 15:46 | 42.52189 | -8.68038 | 39069 ft | 473 kts | 178° |
| 2026-05-05 15:46 | 42.46733 | -8.67360 | 39070 ft | 473 kts | 178° |
| 2026-05-05 15:47 | 42.40164 | -8.66547 | 39072 ft | 473 kts | 178° |
| 2026-05-05 15:47 | 42.33604 | -8.65734 | 39073 ft | 472 kts | 178° |
| 2026-05-05 15:48 | 42.27082 | -8.64930 | 39070 ft | 472 kts | 178° |
| 2026-05-05 15:48 | 42.20559 | -8.64127 | 39074 ft | 471 kts | 178° |
| 2026-05-05 15:49 | 42.14017 | -8.63323 | 39064 ft | 471 kts | 178° |
| 2026-05-05 15:49 | 42.07480 | -8.62523 | 39045 ft | 471 kts | 178° |
| 2026-05-05 15:50 | 42.00941 | -8.61723 | 39067 ft | 470 kts | 179° |
| 2026-05-05 15:50 | 41.94459 | -8.60930 | 39066 ft | 470 kts | 179° |
| 2026-05-05 15:51 | 41.87943 | -8.60136 | 39056 ft | 470 kts | 179° |
| 2026-05-05 15:51 | 41.81461 | -8.58743 | 39064 ft | 473 kts | 173° |
| 2026-05-05 15:52 | 41.75005 | -8.56990 | 39061 ft | 472 kts | 172° |
| 2026-05-05 15:52 | 41.68587 | -8.55227 | 39057 ft | 472 kts | 172° |
| 2026-05-05 15:53 | 41.62130 | -8.53454 | 39059 ft | 472 kts | 173° |
| 2026-05-05 15:53 | 41.55736 | -8.51700 | 39060 ft | 470 kts | 173° |
| 2026-05-05 15:54 | 41.49348 | -8.49951 | 39060 ft | 470 kts | 173° |
| 2026-05-05 15:54 | 41.42920 | -8.48194 | 39059 ft | 470 kts | 173° |
| 2026-05-05 15:55 | 41.36553 | -8.46458 | 39067 ft | 469 kts | 173° |
| 2026-05-05 15:55 | 41.30153 | -8.44715 | 39067 ft | 469 kts | 173° |
| 2026-05-05 15:56 | 41.23745 | -8.42975 | 39046 ft | 469 kts | 173° |
| 2026-05-05 15:56 | 41.17390 | -8.41252 | 39062 ft | 468 kts | 173° |
| 2026-05-05 15:57 | 41.10993 | -8.39521 | 39060 ft | 468 kts | 173° |
| 2026-05-05 15:57 | 41.04601 | -8.37795 | 39060 ft | 468 kts | 173° |
| 2026-05-05 15:58 | 40.98230 | -8.36078 | 39062 ft | 468 kts | 173° |
| 2026-05-05 15:58 | 40.91886 | -8.34372 | 39062 ft | 468 kts | 173° |
| 2026-05-05 15:59 | 40.85497 | -8.32657 | 39054 ft | 469 kts | 173° |
| 2026-05-05 15:59 | 40.79084 | -8.30939 | 39052 ft | 469 kts | 173° |
| 2026-05-05 16:00 | 40.72725 | -8.29239 | 39053 ft | 468 kts | 173° |
| 2026-05-05 16:00 | 40.66329 | -8.27532 | 39053 ft | 468 kts | 173° |
| 2026-05-05 16:01 | 40.59937 | -8.25830 | 39039 ft | 468 kts | 173° |
| 2026-05-05 16:01 | 40.53553 | -8.24133 | 39050 ft | 466 kts | 173° |
| 2026-05-05 16:02 | 40.47231 | -8.22455 | 39050 ft | 465 kts | 173° |
| 2026-05-05 16:02 | 40.40887 | -8.20776 | 39051 ft | 465 kts | 173° |
| 2026-05-05 16:03 | 40.34543 | -8.19100 | 39041 ft | 465 kts | 173° |
| 2026-05-05 16:03 | 40.28221 | -8.17432 | 39043 ft | 465 kts | 173° |